createdAt,value
2019-03-06T00:01:58.252Z,9.43
2019-03-06T00:03:59.076Z,8.80
2019-03-06T00:05:59.924Z,7.63
2019-03-06T00:08:00.776Z,5.20
2019-03-06T00:10:01.749Z,5.30
2019-03-06T00:12:02.586Z,4.70
2019-03-06T00:14:03.677Z,4.67
2019-03-06T00:16:04.529Z,5.97
2019-03-06T00:18:05.361Z,5.97
2019-03-06T00:20:06.330Z,5.57
2019-03-06T00:22:07.257Z,5.27
2019-03-06T00:24:08.096Z,5.40
2019-03-06T00:26:08.940Z,6.43
2019-03-06T00:28:09.774Z,6.30
2019-03-06T00:30:10.629Z,5.73
2019-03-06T00:32:11.465Z,5.90
2019-03-06T00:34:12.310Z,6.83
2019-03-06T00:36:16.880Z,6.00
2019-03-06T00:38:18.068Z,5.53
2019-03-06T00:40:31.425Z,5.40
2019-03-06T00:42:34.921Z,5.80
2019-03-06T00:44:35.766Z,6.07
2019-03-06T00:46:36.588Z,5.73
2019-03-06T00:48:37.445Z,6.40
2019-03-06T00:50:38.284Z,6.80
2019-03-06T00:52:39.129Z,8.27
2019-03-06T00:54:39.981Z,6.67
2019-03-06T00:56:40.832Z,9.13
2019-03-06T00:58:41.664Z,8.63
2019-03-06T01:00:42.508Z,8.53
2019-03-06T01:02:43.658Z,7.00
2019-03-06T01:04:44.492Z,7.00
2019-03-06T01:06:45.354Z,5.70
2019-03-06T01:08:46.196Z,5.80
2019-03-06T01:10:47.132Z,6.03
2019-03-06T01:12:47.980Z,6.70
2019-03-06T01:14:48.859Z,7.50
2019-03-06T01:16:49.693Z,6.50
2019-03-06T01:18:50.521Z,6.20
2019-03-06T01:20:51.651Z,7.00
2019-03-06T01:22:52.501Z,8.17
2019-03-06T01:24:53.328Z,7.60
2019-03-06T01:26:54.442Z,6.30
2019-03-06T01:28:55.300Z,10.63
2019-03-06T01:30:56.323Z,8.17
2019-03-06T01:33:02.642Z,10.70
2019-03-06T01:35:27.821Z,10.23
2019-03-06T01:37:49.977Z,9.23
2019-03-06T01:40:09.252Z,10.53
2019-03-06T01:42:19.781Z,11.97
2019-03-06T01:44:24.959Z,16.10
2019-03-06T01:46:25.887Z,13.47
2019-03-06T01:48:26.739Z,13.47
2019-03-06T01:50:27.564Z,16.00
2019-03-06T01:52:28.426Z,16.83
2019-03-06T01:54:29.273Z,14.10
2019-03-06T01:56:30.138Z,13.13
2019-03-06T01:58:31.313Z,13.13
2019-03-06T02:00:32.435Z,13.97
2019-03-06T02:02:33.288Z,13.67
2019-03-06T02:04:34.120Z,16.43
2019-03-06T02:06:34.969Z,15.50
2019-03-06T02:08:35.820Z,20.17
2019-03-06T02:10:36.960Z,13.90
2019-03-06T02:12:37.908Z,12.47
2019-03-06T02:14:38.748Z,14.73
2019-03-06T02:16:39.603Z,14.10
2019-03-06T02:18:40.448Z,11.53
2019-03-06T02:20:41.291Z,11.73
2019-03-06T02:22:42.130Z,11.40
2019-03-06T02:24:42.972Z,11.47
2019-03-06T02:26:43.833Z,10.67
2019-03-06T02:28:44.916Z,8.40
2019-03-06T02:30:45.804Z,10.73
2019-03-06T02:32:46.659Z,12.50
2019-03-06T02:34:47.496Z,12.13
2019-03-06T02:36:48.333Z,10.00
2019-03-06T02:38:49.168Z,10.40
2019-03-06T02:40:50.420Z,9.97
2019-03-06T02:42:51.249Z,14.00
2019-03-06T02:44:52.101Z,10.73
2019-03-06T02:46:52.951Z,11.80
2019-03-06T02:48:53.796Z,12.13
2019-03-06T02:50:54.633Z,11.53
2019-03-06T02:52:55.488Z,12.67
2019-03-06T02:54:56.330Z,11.13
2019-03-06T02:56:57.174Z,11.30
2019-03-06T02:59:20.740Z,10.77
2019-03-06T03:01:31.078Z,11.20
2019-03-06T03:04:07.061Z,9.87
2019-03-06T03:06:13.809Z,10.43
2019-03-06T03:08:14.648Z,11.40
2019-03-06T03:10:15.717Z,10.93
2019-03-06T03:12:16.546Z,10.67
2019-03-06T03:14:17.401Z,12.53
2019-03-06T03:16:18.221Z,11.97
2019-03-06T03:18:19.090Z,10.13
2019-03-06T03:20:19.923Z,11.23
2019-03-06T03:22:20.757Z,11.13
2019-03-06T03:24:21.614Z,10.37
2019-03-06T03:26:22.473Z,11.97
2019-03-06T03:28:23.714Z,12.23
2019-03-06T03:30:24.546Z,11.30
2019-03-06T03:32:25.382Z,9.33
2019-03-06T03:34:26.218Z,11.33
2019-03-06T03:36:27.054Z,16.23
2019-03-06T03:38:27.877Z,11.87
2019-03-06T03:40:28.750Z,12.83
2019-03-06T03:42:29.869Z,13.30
2019-03-06T03:44:30.709Z,12.80
2019-03-06T03:46:31.862Z,12.00
2019-03-06T03:48:32.689Z,11.97
2019-03-06T03:50:33.547Z,11.77
2019-03-06T03:52:34.375Z,14.87
2019-03-06T03:54:35.213Z,11.90
2019-03-06T03:56:36.058Z,10.67
2019-03-06T03:58:36.893Z,10.90
2019-03-06T04:00:37.721Z,12.67
2019-03-06T04:02:38.556Z,10.13
2019-03-06T04:04:39.808Z,12.57
2019-03-06T04:06:40.677Z,10.07
2019-03-06T04:08:41.522Z,12.87
2019-03-06T04:10:42.352Z,10.83
2019-03-06T04:12:43.177Z,11.03
2019-03-06T04:14:44.042Z,12.77
2019-03-06T04:16:45.176Z,10.97
2019-03-06T04:18:46.021Z,12.70
2019-03-06T04:20:46.915Z,12.43
2019-03-06T04:22:47.779Z,13.60
2019-03-06T04:24:48.609Z,13.13
2019-03-06T04:26:49.749Z,12.50
2019-03-06T04:28:50.610Z,13.27
2019-03-06T04:30:52.646Z,13.03
2019-03-06T04:32:53.497Z,15.83
2019-03-06T04:34:54.620Z,13.30
2019-03-06T04:36:55.451Z,13.73
2019-03-06T04:38:56.312Z,14.60
2019-03-06T04:40:57.444Z,13.20
2019-03-06T04:42:58.553Z,16.17
2019-03-06T04:44:59.416Z,13.47
2019-03-06T04:47:00.254Z,13.80
2019-03-06T04:49:01.096Z,13.13
2019-03-06T04:51:01.973Z,12.87
2019-03-06T04:53:03.126Z,12.10
2019-03-06T04:55:03.992Z,13.80
2019-03-06T04:57:04.825Z,15.10
2019-03-06T04:59:05.688Z,16.73
2019-03-06T05:01:06.512Z,16.30
2019-03-06T05:03:07.371Z,16.03
2019-03-06T05:05:08.201Z,17.37
2019-03-06T05:07:09.053Z,15.10
2019-03-06T05:09:10.089Z,14.77
2019-03-06T05:11:10.985Z,15.47
2019-03-06T05:13:11.828Z,14.23
2019-03-06T05:15:12.670Z,14.97
2019-03-06T05:17:42.425Z,15.23
2019-03-06T05:19:43.263Z,14.80
2019-03-06T05:21:44.129Z,13.83
2019-03-06T05:23:44.968Z,16.70
2019-03-06T05:25:45.819Z,18.27
2019-03-06T05:27:46.680Z,15.37
2019-03-06T05:29:47.512Z,15.10
2019-03-06T05:31:48.976Z,16.97
2019-03-06T05:33:50.365Z,15.77
2019-03-06T05:35:51.224Z,15.93
2019-03-06T05:37:52.079Z,21.07
2019-03-06T05:39:53.218Z,15.83
2019-03-06T05:41:54.370Z,17.33
2019-03-06T05:43:55.206Z,15.70
2019-03-06T05:45:56.060Z,19.23
2019-03-06T05:47:57.176Z,21.43
2019-03-06T05:49:58.312Z,18.10
2019-03-06T05:51:59.181Z,19.00
2019-03-06T05:54:00.036Z,18.83
2019-03-06T05:56:00.972Z,16.13
2019-03-06T05:58:01.804Z,18.77
2019-03-06T06:00:02.776Z,17.77
2019-03-06T06:02:03.637Z,18.27
2019-03-06T06:04:04.480Z,20.70
2019-03-06T06:06:05.321Z,18.23
2019-03-06T06:08:06.177Z,20.43
2019-03-06T06:10:07.416Z,20.60
2019-03-06T06:12:08.236Z,22.17
2019-03-06T06:14:09.099Z,20.10
2019-03-06T06:16:09.928Z,21.70
2019-03-06T06:18:10.796Z,20.33
2019-03-06T06:20:11.630Z,21.57
2019-03-06T06:22:28.628Z,23.43
2019-03-06T06:24:30.248Z,20.63
2019-03-06T06:26:31.441Z,21.23
2019-03-06T06:28:32.304Z,21.43
2019-03-06T06:30:33.252Z,20.33
2019-03-06T06:32:34.110Z,21.10
2019-03-06T06:34:34.978Z,21.30
2019-03-06T06:36:35.852Z,20.77
2019-03-06T06:38:37.508Z,21.00
2019-03-06T06:40:38.561Z,22.00
2019-03-06T06:42:39.413Z,20.43
2019-03-06T06:44:40.572Z,22.03
2019-03-06T06:46:41.436Z,17.93
2019-03-06T06:48:42.276Z,20.20
2019-03-06T06:50:43.410Z,20.87
2019-03-06T06:52:44.252Z,20.80
2019-03-06T06:54:45.136Z,18.43
2019-03-06T06:56:45.985Z,19.40
2019-03-06T06:58:46.848Z,18.57
2019-03-06T07:01:16.404Z,18.00
2019-03-06T07:03:42.922Z,18.47
2019-03-06T07:05:55.322Z,17.17
2019-03-06T07:08:04.352Z,20.97
2019-03-06T07:10:23.895Z,16.23
2019-03-06T07:12:31.208Z,16.87
2019-03-06T07:14:49.989Z,18.07
2019-03-06T07:17:00.828Z,18.60
2019-03-06T07:19:14.447Z,19.97
2019-03-06T07:21:20.800Z,17.47
2019-03-06T07:23:41.393Z,20.83
2019-03-06T07:25:47.997Z,19.03
2019-03-06T07:28:17.744Z,20.03
2019-03-06T07:30:38.257Z,15.17
2019-03-06T07:32:51.203Z,17.87
2019-03-06T07:35:10.181Z,18.27
2019-03-06T07:37:28.278Z,17.60
2019-03-06T07:39:32.186Z,17.73
2019-03-06T07:41:41.629Z,17.40
2019-03-06T07:43:51.057Z,15.37
2019-03-06T07:46:10.462Z,15.20
2019-03-06T07:48:21.608Z,17.00
2019-03-06T07:50:41.101Z,14.93
2019-03-06T07:52:50.701Z,15.97
2019-03-06T07:55:06.620Z,15.37
2019-03-06T07:57:36.124Z,17.13
2019-03-06T07:59:36.973Z,15.30
2019-03-06T08:01:37.809Z,14.67
2019-03-06T08:03:38.669Z,13.90
2019-03-06T08:05:39.800Z,16.40
2019-03-06T08:07:40.672Z,14.43
2019-03-06T08:09:41.527Z,13.90
2019-03-06T08:11:50.019Z,14.47
2019-03-06T08:14:02.343Z,15.00
2019-03-06T08:16:22.826Z,14.73
2019-03-06T08:18:46.209Z,14.43
2019-03-06T08:21:04.765Z,12.70
2019-03-06T08:23:13.870Z,13.50
2019-03-06T08:25:23.669Z,15.50
2019-03-06T08:27:25.484Z,13.87
2019-03-06T08:29:26.341Z,13.00
2019-03-06T08:32:05.212Z,11.37
2019-03-06T08:34:06.263Z,11.73
2019-03-06T08:36:07.181Z,12.47
2019-03-06T08:38:08.021Z,12.33
2019-03-06T08:40:08.863Z,11.20
2019-03-06T08:42:09.709Z,12.00
2019-03-06T08:44:10.561Z,7.43
2019-03-06T08:46:34.196Z,7.50
2019-03-06T08:48:41.892Z,7.43
2019-03-06T08:51:06.397Z,6.27
2019-03-06T08:53:10.108Z,10.47
2019-03-06T08:55:26.379Z,5.67
2019-03-06T08:57:46.877Z,3.50
2019-03-06T09:00:16.429Z,7.60
2019-03-06T09:02:46.373Z,4.77
2019-03-06T09:05:12.688Z,3.87
2019-03-06T09:07:26.988Z,2.10
2019-03-06T09:09:37.756Z,2.30
2019-03-06T09:11:45.741Z,2.77
2019-03-06T09:14:01.544Z,2.47
2019-03-06T09:16:27.933Z,2.60
2019-03-06T09:18:47.136Z,2.50
2019-03-06T09:21:16.981Z,2.97
2019-03-06T09:23:34.697Z,3.03
2019-03-06T09:25:43.600Z,2.77
2019-03-06T09:28:07.121Z,3.73
2019-03-06T09:30:36.736Z,3.00
2019-03-06T09:32:56.256Z,2.10
2019-03-06T09:35:03.728Z,3.70
2019-03-06T09:37:10.812Z,1.90
2019-03-06T09:39:20.339Z,1.90
2019-03-06T09:41:40.863Z,2.60
2019-03-06T09:44:04.577Z,4.57
2019-03-06T09:46:11.880Z,1.57
2019-03-06T09:48:34.956Z,2.80
2019-03-06T09:51:00.168Z,2.33
2019-03-06T09:53:19.567Z,2.30
2019-03-06T09:55:39.064Z,5.67
2019-03-06T09:57:56.404Z,5.73
2019-03-06T10:00:32.794Z,2.97
2019-03-06T10:02:43.739Z,1.70
2019-03-06T10:05:10.212Z,2.60
2019-03-06T10:07:29.512Z,2.90
2019-03-06T10:10:02.364Z,5.03
2019-03-06T10:12:11.988Z,2.60
2019-03-06T10:14:36.867Z,3.27
2019-03-06T10:16:48.732Z,2.00
2019-03-06T10:19:04.120Z,2.17
2019-03-06T10:21:05.309Z,3.03
2019-03-06T10:23:08.259Z,2.07
2019-03-06T10:25:08.973Z,2.00
2019-03-06T10:27:09.989Z,4.97
2019-03-06T10:29:10.841Z,2.73
2019-03-06T10:31:11.944Z,3.47
2019-03-06T10:33:13.083Z,2.63
2019-03-06T10:35:14.232Z,3.87
2019-03-06T10:37:15.410Z,2.77
2019-03-06T10:39:16.489Z,2.43
2019-03-06T10:41:17.356Z,2.43
2019-03-06T10:43:18.311Z,2.07
2019-03-06T10:45:19.239Z,2.97
2019-03-06T10:47:20.476Z,2.17
2019-03-06T10:49:21.421Z,4.30
2019-03-06T10:51:22.280Z,3.17
2019-03-06T10:53:23.157Z,1.67
2019-03-06T10:55:24.000Z,3.73
2019-03-06T10:57:25.240Z,1.87
2019-03-06T10:59:26.306Z,2.03
2019-03-06T11:01:27.265Z,3.93
2019-03-06T11:03:37.001Z,2.57
2019-03-06T11:05:38.170Z,2.43
2019-03-06T11:07:39.325Z,2.67
2019-03-06T11:09:40.285Z,2.00
2019-03-06T11:11:41.137Z,2.70
2019-03-06T11:13:42.072Z,1.57
2019-03-06T11:15:43.213Z,1.70
2019-03-06T11:17:44.056Z,2.17
2019-03-06T11:19:45.229Z,1.87
2019-03-06T11:21:46.064Z,2.03
2019-03-06T11:23:47.217Z,2.63
2019-03-06T11:25:48.120Z,2.37
2019-03-06T11:27:49.289Z,2.77
2019-03-06T11:29:50.153Z,3.87
2019-03-06T11:31:50.980Z,4.70
2019-03-06T11:33:51.842Z,3.90
2019-03-06T11:35:52.696Z,6.27
2019-03-06T11:37:53.532Z,2.10
2019-03-06T11:39:54.381Z,1.97
2019-03-06T11:41:55.346Z,2.53
2019-03-06T11:43:56.177Z,2.63
2019-03-06T11:45:57.030Z,2.10
2019-03-06T11:47:57.860Z,2.90
2019-03-06T11:49:58.692Z,4.37
2019-03-06T11:51:59.549Z,5.80
2019-03-06T11:54:00.400Z,3.87
2019-03-06T11:56:01.911Z,3.63
2019-03-06T11:58:02.745Z,2.67
2019-03-06T12:00:03.576Z,2.50
2019-03-06T12:02:05.586Z,3.90
2019-03-06T12:04:06.436Z,3.23
2019-03-06T12:06:07.577Z,2.33
2019-03-06T12:08:08.444Z,3.67
2019-03-06T12:10:09.276Z,3.93
2019-03-06T12:12:10.532Z,2.67
2019-03-06T12:14:11.384Z,3.37
2019-03-06T12:16:12.221Z,2.50
2019-03-06T12:18:13.076Z,2.43
2019-03-06T12:20:14.208Z,4.30
2019-03-06T12:22:15.072Z,2.20
2019-03-06T12:24:16.189Z,4.83
2019-03-06T12:26:17.029Z,3.30
2019-03-06T12:28:18.189Z,4.43
2019-03-06T12:30:19.009Z,2.60
2019-03-06T12:32:19.848Z,2.47
2019-03-06T12:34:20.702Z,8.37
2019-03-06T12:36:21.575Z,8.33
2019-03-06T12:38:22.407Z,3.50
2019-03-06T12:40:23.253Z,6.83
2019-03-06T12:42:24.120Z,3.93
2019-03-06T12:44:24.956Z,2.80
2019-03-06T12:46:25.799Z,3.50
2019-03-06T12:48:26.928Z,3.13
2019-03-06T12:50:27.792Z,2.20
2019-03-06T12:52:28.636Z,2.33
2019-03-06T12:54:30.373Z,3.03
2019-03-06T12:56:31.236Z,2.40
2019-03-06T12:58:32.092Z,2.53
2019-03-06T13:00:32.944Z,2.80
2019-03-06T13:02:33.784Z,2.47
2019-03-06T13:04:34.645Z,4.23
2019-03-06T13:06:35.504Z,2.70
2019-03-06T13:08:36.675Z,3.77
2019-03-06T13:10:37.538Z,3.43
2019-03-06T13:12:38.413Z,3.23
2019-03-06T13:14:39.440Z,3.87
2019-03-06T13:16:41.126Z,2.43
2019-03-06T13:18:42.153Z,2.33
2019-03-06T13:20:43.049Z,2.70
2019-03-06T13:23:04.339Z,3.73
2019-03-06T13:25:43.500Z,4.50
2019-03-06T13:28:19.543Z,3.97
2019-03-06T13:30:57.839Z,2.60
2019-03-06T13:33:20.516Z,4.20
2019-03-06T13:35:22.215Z,3.03
2019-03-06T13:37:23.053Z,2.13
2019-03-06T13:39:23.910Z,2.53
2019-03-06T13:41:24.971Z,3.00
2019-03-06T13:43:25.922Z,3.83
2019-03-06T13:45:26.768Z,3.40
2019-03-06T13:47:27.620Z,2.20
2019-03-06T13:49:28.787Z,2.67
2019-03-06T13:51:29.709Z,3.53
2019-03-06T13:53:31.596Z,3.10
2019-03-06T13:55:32.433Z,2.27
2019-03-06T13:57:33.388Z,2.07
2019-03-06T13:59:34.600Z,2.07
2019-03-06T14:01:35.824Z,2.70
2019-03-06T14:03:36.661Z,2.33
2019-03-06T14:05:37.529Z,2.70
2019-03-06T14:07:38.368Z,3.17
2019-03-06T14:09:39.250Z,3.57
2019-03-06T14:11:40.085Z,2.97
2019-03-06T14:13:40.920Z,5.70
2019-03-06T14:15:42.080Z,3.10
2019-03-06T14:17:42.923Z,3.20
2019-03-06T14:19:43.752Z,3.23
2019-03-06T14:21:44.876Z,5.30
2019-03-06T14:23:45.737Z,3.30
2019-03-06T14:25:46.570Z,2.53
2019-03-06T14:27:47.692Z,3.90
2019-03-06T14:29:48.558Z,4.37
2019-03-06T14:31:49.533Z,3.43
2019-03-06T14:33:50.364Z,4.07
2019-03-06T14:35:51.514Z,4.97
2019-03-06T14:37:52.368Z,2.80
2019-03-06T14:39:53.500Z,3.03
2019-03-06T14:41:54.352Z,3.77
2019-03-06T14:43:55.452Z,4.23
2019-03-06T14:45:56.288Z,4.87
2019-03-06T14:47:57.456Z,3.90
2019-03-06T14:49:58.293Z,3.30
2019-03-06T14:52:06.958Z,5.23
2019-03-06T14:54:01.892Z,4.83
2019-03-06T14:56:02.721Z,4.63
2019-03-06T14:58:03.573Z,4.40
2019-03-06T15:00:04.407Z,4.07
2019-03-06T15:02:05.253Z,5.00
2019-03-06T15:04:06.121Z,3.70
2019-03-06T15:06:07.285Z,4.70
2019-03-06T15:08:08.216Z,4.60
2019-03-06T15:10:09.381Z,2.53
2019-03-06T15:12:10.529Z,4.77
2019-03-06T15:14:11.644Z,3.80
2019-03-06T15:16:12.493Z,4.50
2019-03-06T15:18:13.344Z,6.93
2019-03-06T15:20:14.192Z,3.30
2019-03-06T15:22:15.036Z,3.60
2019-03-06T15:24:16.216Z,3.13
2019-03-06T15:26:17.084Z,3.10
2019-03-06T15:28:17.957Z,3.90
2019-03-06T15:30:19.208Z,2.60
2019-03-06T15:32:20.061Z,5.80
2019-03-06T15:34:21.198Z,4.70
2019-03-06T15:36:22.037Z,3.63
2019-03-06T15:38:23.096Z,4.30
2019-03-06T15:40:25.577Z,4.50
2019-03-06T15:42:26.690Z,5.90
2019-03-06T15:44:27.841Z,4.07
2019-03-06T15:46:28.677Z,3.60
2019-03-06T15:48:29.539Z,5.00
2019-03-06T15:50:30.387Z,4.47
2019-03-06T15:52:31.244Z,4.83
2019-03-06T15:54:32.123Z,4.73
2019-03-06T15:56:33.332Z,3.33
2019-03-06T15:58:34.193Z,4.53
2019-03-06T16:00:35.377Z,5.80
2019-03-06T16:02:36.344Z,6.80
2019-03-06T16:04:37.393Z,4.13
2019-03-06T16:06:38.254Z,6.87
2019-03-06T16:08:39.167Z,9.57
2019-03-06T16:10:40.005Z,10.70
2019-03-06T16:12:40.849Z,8.30
2019-03-06T16:14:41.680Z,7.03
2019-03-06T16:16:42.535Z,7.27
2019-03-06T16:18:43.633Z,5.73
2019-03-06T16:20:44.708Z,4.83
2019-03-06T16:22:45.577Z,5.13
2019-03-06T16:24:46.511Z,4.50
2019-03-06T16:26:47.368Z,5.30
2019-03-06T16:28:48.193Z,7.17
2019-03-06T16:30:49.340Z,7.77
2019-03-06T16:32:50.206Z,6.77
2019-03-06T16:34:51.036Z,8.90
2019-03-06T16:36:52.248Z,8.10
2019-03-06T16:38:53.305Z,10.87
2019-03-06T16:40:54.128Z,14.57
2019-03-06T16:42:54.961Z,11.37
2019-03-06T16:44:56.048Z,8.63
2019-03-06T16:47:06.190Z,8.30
2019-03-06T16:49:00.202Z,8.20
2019-03-06T16:51:01.143Z,10.87
2019-03-06T16:53:02.308Z,13.47
2019-03-06T16:55:03.160Z,10.00
2019-03-06T16:57:03.992Z,11.03
2019-03-06T16:59:05.349Z,12.57
2019-03-06T17:01:06.489Z,11.30
2019-03-06T17:03:07.325Z,11.90
2019-03-06T17:05:08.186Z,12.07
2019-03-06T17:07:09.350Z,10.13
2019-03-06T17:09:10.216Z,10.77
2019-03-06T17:11:11.053Z,15.33
2019-03-06T17:13:12.190Z,8.73
2019-03-06T17:15:13.428Z,8.13
2019-03-06T17:17:14.536Z,11.23
2019-03-06T17:19:15.384Z,9.60
2019-03-06T17:21:16.220Z,6.80
2019-03-06T17:23:17.057Z,8.07
2019-03-06T17:25:17.917Z,8.50
2019-03-06T17:27:18.749Z,15.83
2019-03-06T17:29:19.872Z,18.53
2019-03-06T17:31:20.833Z,20.77
2019-03-06T17:33:21.689Z,14.27
2019-03-06T17:35:22.888Z,15.87
2019-03-06T17:37:23.720Z,9.53
2019-03-06T17:39:24.835Z,8.47
2019-03-06T17:41:25.673Z,10.07
2019-03-06T17:43:26.530Z,7.07
2019-03-06T17:45:27.356Z,8.43
2019-03-06T17:47:28.204Z,7.57
2019-03-06T17:49:29.060Z,7.03
2019-03-06T17:51:29.922Z,14.50
2019-03-06T17:53:30.912Z,12.70
2019-03-06T17:55:32.173Z,8.73
2019-03-06T17:57:33.004Z,9.87
2019-03-06T17:59:33.844Z,9.70
2019-03-06T18:01:34.841Z,8.57
2019-03-06T18:03:43.400Z,8.37
2019-03-06T18:05:44.232Z,8.33
2019-03-06T18:07:45.073Z,11.10
2019-03-06T18:09:45.938Z,9.73
2019-03-06T18:11:46.774Z,12.60
2019-03-06T18:13:48.030Z,12.57
2019-03-06T18:15:48.878Z,11.83
2019-03-06T18:17:49.717Z,12.33
2019-03-06T18:19:50.570Z,9.80
2019-03-06T18:21:51.613Z,12.23
2019-03-06T18:23:52.802Z,12.47
2019-03-06T18:25:53.665Z,12.57
2019-03-06T18:27:54.505Z,12.57
2019-03-06T18:29:55.769Z,8.73
2019-03-06T18:31:56.600Z,7.33
2019-03-06T21:01:29.427Z,14.47
2019-03-06T21:03:30.590Z,13.90
2019-03-06T21:05:31.342Z,13.00
2019-03-06T21:07:32.378Z,14.27
2019-03-06T21:09:33.147Z,12.17
2019-03-06T21:11:33.963Z,12.37
2019-03-06T21:13:36.816Z,11.30
2019-03-06T21:15:37.654Z,12.17
2019-03-06T21:17:38.508Z,10.53
2019-03-06T21:19:39.353Z,11.00
2019-03-06T21:21:40.368Z,12.93
2019-03-06T21:23:41.141Z,11.60
2019-03-06T21:25:41.996Z,13.57
2019-03-06T21:27:43.071Z,12.00
2019-03-06T21:29:44.016Z,11.63
2019-03-06T21:31:45.136Z,14.77
2019-03-06T21:33:45.989Z,10.37
2019-03-06T21:35:47.107Z,10.73
2019-03-06T21:37:48.132Z,12.30
2019-03-06T21:39:48.907Z,12.73
2019-03-06T21:41:50.012Z,11.90
2019-03-06T21:43:50.857Z,12.83
2019-03-06T21:45:51.816Z,12.70
2019-03-06T21:47:52.552Z,10.67
2019-03-06T21:49:53.420Z,11.17
2019-03-06T21:51:54.482Z,10.57
2019-03-06T21:53:55.455Z,10.37
2019-03-06T21:55:56.222Z,11.30
2019-03-06T21:57:57.076Z,11.00
2019-03-06T21:59:57.943Z,10.00
2019-03-06T22:01:59.210Z,11.37
2019-03-06T22:04:00.137Z,9.33
2019-03-06T22:06:00.976Z,10.70
2019-03-06T22:08:01.738Z,9.20
2019-03-06T22:10:02.489Z,7.87
2019-03-06T22:12:03.220Z,8.63
2019-03-06T22:14:03.957Z,9.53
2019-03-06T22:16:04.713Z,9.10
2019-03-06T22:18:05.441Z,10.97
2019-03-06T22:20:06.181Z,9.90
2019-03-06T22:22:06.929Z,7.53
2019-03-06T22:24:07.649Z,9.00
2019-03-06T22:26:08.396Z,7.00
2019-03-06T22:28:09.120Z,6.20
2019-03-06T22:30:09.840Z,6.87
2019-03-06T22:32:10.588Z,4.10
2019-03-06T22:34:11.312Z,5.77
2019-03-06T22:36:12.037Z,6.17
2019-03-06T22:38:12.776Z,4.37
2019-03-06T22:40:13.513Z,4.90
2019-03-06T22:42:14.253Z,3.93
2019-03-06T22:44:15.006Z,4.03
2019-03-06T22:46:15.721Z,3.67
2019-03-06T22:48:16.484Z,4.83
2019-03-06T22:50:17.230Z,6.00
2019-03-06T22:52:17.977Z,5.47
2019-03-06T22:54:18.705Z,7.20
2019-03-06T22:56:19.422Z,11.00
2019-03-06T22:58:20.158Z,8.57
2019-03-06T23:00:21.211Z,7.67
2019-03-06T23:02:22.129Z,6.93
2019-03-06T23:04:22.881Z,5.83
2019-03-06T23:06:23.640Z,6.37
2019-03-06T23:08:24.991Z,5.90
2019-03-06T23:10:25.844Z,8.17
2019-03-06T23:12:26.868Z,6.43
2019-03-06T23:14:27.621Z,5.13
2019-03-06T23:16:28.350Z,6.57
2019-03-06T23:18:29.493Z,6.73
2019-03-06T23:20:32.020Z,6.03
2019-03-06T23:22:32.768Z,6.00
2019-03-06T23:24:33.549Z,7.03
2019-03-06T23:26:42.520Z,6.20
2019-03-06T23:28:37.488Z,7.60
2019-03-06T23:30:38.244Z,6.27
2019-03-06T23:32:38.984Z,7.47
2019-03-06T23:34:39.912Z,7.40
2019-03-06T23:36:40.960Z,6.37
2019-03-06T23:38:41.722Z,8.80
2019-03-06T23:40:42.462Z,5.00
2019-03-06T23:42:43.192Z,5.77
2019-03-06T23:44:43.925Z,6.60
2019-03-06T23:46:44.696Z,6.70
2019-03-06T23:48:45.424Z,7.03
2019-03-06T23:50:46.145Z,6.80
2019-03-06T23:53:04.607Z,8.73
2019-03-06T23:55:05.352Z,6.83
2019-03-06T23:57:06.288Z,7.70
2019-03-06T23:59:07.149Z,6.00
